sensor_id;sensor_type;location;lat;lon;timestamp;pressure;altitude;pressure_sealevel;temperature;humidity
62708;BME280;48769;51.624;5.886;2024-03-23T00:54:14;100818.72;;;7.95;100.00
62708;BME280;48769;51.624;5.886;2024-03-23T00:56:40;100820.41;;;7.96;100.00
62708;BME280;48769;51.624;5.886;2024-03-23T00:59:05;100823.06;;;7.96;100.00
62708;BME280;48769;51.624;5.886;2024-03-23T01:01:30;100837.22;;;7.93;100.00
62708;BME280;48769;51.624;5.886;2024-03-23T01:03:56;100836.47;;;7.90;100.00
62708;BME280;48769;51.624;5.886;2024-03-23T01:06:21;100834.75;;;7.89;100.00
62708;BME280;48769;51.624;5.886;2024-03-23T01:08:46;100829.50;;;7.89;100.00
62708;BME280;48769;51.624;5.886;2024-03-23T01:11:11;100828.72;;;7.87;100.00
62708;BME280;48769;51.624;5.886;2024-03-23T01:13:37;100829.50;;;7.89;100.00
62708;BME280;48769;51.624;5.886;2024-03-23T01:16:02;100833.03;;;7.88;100.00
62708;BME280;48769;51.624;5.886;2024-03-23T01:18:28;100833.09;;;7.86;100.00
62708;BME280;48769;51.624;5.886;2024-03-23T01:20:54;100839.41;;;7.82;100.00
62708;BME280;48769;51.624;5.886;2024-03-23T01:23:20;100836.00;;;7.80;100.00
62708;BME280;48769;51.624;5.886;2024-03-23T01:25:54;100828.03;;;7.82;100.00
62708;BME280;48769;51.624;5.886;2024-03-23T01:28:20;100828.03;;;7.82;100.00
62708;BME280;48769;51.624;5.886;2024-03-23T01:30:46;100821.91;;;7.81;100.00
62708;BME280;48769;51.624;5.886;2024-03-23T01:33:12;100813.94;;;7.83;100.00
62708;BME280;48769;51.624;5.886;2024-03-23T01:35:38;100810.31;;;7.87;100.00
62708;BME280;48769;51.624;5.886;2024-03-23T01:38:03;100817.25;;;7.88;100.00
62708;BME280;48769;51.624;5.886;2024-03-23T01:40:29;100810.19;;;7.90;100.00
62708;BME280;48769;51.624;5.886;2024-03-23T01:43:07;100806.28;;;7.99;100.00
62708;BME280;48769;51.624;5.886;2024-03-23T01:45:36;100803.41;;;8.05;100.00
62708;BME280;48769;51.624;5.886;2024-03-23T01:48:01;100806.03;;;8.05;100.00
62708;BME280;48769;51.624;5.886;2024-03-23T01:50:28;100805.19;;;8.04;100.00
62708;BME280;48769;51.624;5.886;2024-03-23T01:52:56;100788.72;;;7.99;100.00
62708;BME280;48769;51.624;5.886;2024-03-23T01:55:21;100812.53;;;7.96;100.00
62708;BME280;48769;51.624;5.886;2024-03-23T01:57:47;100803.06;;;7.92;100.00
62708;BME280;48769;51.624;5.886;2024-03-23T02:00:13;100807.69;;;7.87;100.00
62708;BME280;48769;51.624;5.886;2024-03-23T02:02:45;100801.72;;;7.82;100.00
62708;BME280;48769;51.624;5.886;2024-03-23T02:05:12;100783.44;;;7.79;100.00
62708;BME280;48769;51.624;5.886;2024-03-23T02:07:39;100786.06;;;7.79;100.00
62708;BME280;48769;51.624;5.886;2024-03-23T02:10:06;100773.84;;;7.78;100.00
62708;BME280;48769;51.624;5.886;2024-03-23T02:12:32;100766.88;;;7.77;100.00
62708;BME280;48769;51.624;5.886;2024-03-23T02:14:57;100775.69;;;7.76;100.00
62708;BME280;48769;51.624;5.886;2024-03-23T02:17:22;100780.16;;;7.73;100.00
62708;BME280;48769;51.624;5.886;2024-03-23T02:19:48;100789.03;;;7.71;100.00
62708;BME280;48769;51.624;5.886;2024-03-23T02:22:13;100779.47;;;7.68;100.00
62708;BME280;48769;51.624;5.886;2024-03-23T02:24:41;100783.09;;;7.66;100.00
62708;BME280;48769;51.624;5.886;2024-03-23T02:27:06;100787.56;;;7.64;100.00
62708;BME280;48769;51.624;5.886;2024-03-23T02:29:31;100791.16;;;7.61;100.00
62708;BME280;48769;51.624;5.886;2024-03-23T02:31:56;100795.50;;;7.62;100.00
62708;BME280;48769;51.624;5.886;2024-03-23T02:34:23;100786.88;;;7.59;100.00
62708;BME280;48769;51.624;5.886;2024-03-23T02:36:49;100775.44;;;7.60;100.00
62708;BME280;48769;51.624;5.886;2024-03-23T02:39:14;100764.94;;;7.60;100.00
62708;BME280;48769;51.624;5.886;2024-03-23T02:41:40;100763.16;;;7.60;100.00
62708;BME280;48769;51.624;5.886;2024-03-23T02:44:05;100761.31;;;7.62;100.00
62708;BME280;48769;51.624;5.886;2024-03-23T02:46:30;100765.72;;;7.62;100.00
62708;BME280;48769;51.624;5.886;2024-03-23T02:48:56;100767.50;;;7.61;100.00
62708;BME280;48769;51.624;5.886;2024-03-23T02:51:21;100771.03;;;7.60;100.00
62708;BME280;48769;51.624;5.886;2024-03-23T02:53:47;100766.81;;;7.56;100.00
62708;BME280;48769;51.624;5.886;2024-03-23T02:56:12;100777.53;;;7.52;100.00
62708;BME280;48769;51.624;5.886;2024-03-23T02:58:41;100764.56;;;7.47;100.00
62708;BME280;48769;51.624;5.886;2024-03-23T03:01:06;100771.47;;;7.49;100.00
62708;BME280;48769;51.624;5.886;2024-03-23T03:03:31;100764.63;;;7.45;100.00
62708;BME280;48769;51.624;5.886;2024-03-23T03:05:57;100758.53;;;7.45;100.00
62708;BME280;48769;51.624;5.886;2024-03-23T03:08:23;100761.31;;;7.40;100.00
62708;BME280;48769;51.624;5.886;2024-03-23T03:10:48;100757.84;;;7.40;100.00
62708;BME280;48769;51.624;5.886;2024-03-23T03:13:13;100759.53;;;7.41;100.00
62708;BME280;48769;51.624;5.886;2024-03-23T03:15:40;100757.81;;;7.41;100.00
62708;BME280;48769;51.624;5.886;2024-03-23T03:18:06;100763.94;;;7.40;100.00
62708;BME280;48769;51.624;5.886;2024-03-23T03:20:31;100760.47;;;7.40;100.00
62708;BME280;48769;51.624;5.886;2024-03-23T03:22:57;100760.66;;;7.35;100.00
62708;BME280;48769;51.624;5.886;2024-03-23T03:25:22;100770.34;;;7.35;100.00
62708;BME280;48769;51.624;5.886;2024-03-23T03:27:47;100760.72;;;7.34;100.00
62708;BME280;48769;51.624;5.886;2024-03-23T03:30:13;100756.38;;;7.33;100.00
62708;BME280;48769;51.624;5.886;2024-03-23T03:32:38;100761.63;;;7.33;100.00
62708;BME280;48769;51.624;5.886;2024-03-23T03:35:04;100754.69;;;7.32;100.00
62708;BME280;48769;51.624;5.886;2024-03-23T03:37:29;100754.81;;;7.29;100.00
62708;BME280;48769;51.624;5.886;2024-03-23T03:39:55;100756.44;;;7.31;100.00
62708;BME280;48769;51.624;5.886;2024-03-23T03:42:20;100753.75;;;7.33;100.00
62708;BME280;48769;51.624;5.886;2024-03-23T03:44:45;100749.31;;;7.35;100.00
62708;BME280;48769;51.624;5.886;2024-03-23T03:47:11;100744.16;;;7.32;100.00
62708;BME280;48769;51.624;5.886;2024-03-23T03:49:36;100751.13;;;7.33;100.00
62708;BME280;48769;51.624;5.886;2024-03-23T03:52:01;100746.84;;;7.30;100.00
62708;BME280;48769;51.624;5.886;2024-03-23T03:54:27;100739.03;;;7.29;100.00
62708;BME280;48769;51.624;5.886;2024-03-23T03:56:52;100737.31;;;7.28;100.00
62708;BME280;48769;51.624;5.886;2024-03-23T03:59:18;100739.03;;;7.29;100.00
62708;BME280;48769;51.624;5.886;2024-03-23T04:01:43;100738.19;;;7.28;100.00
62708;BME280;48769;51.624;5.886;2024-03-23T04:04:09;100734.75;;;7.26;100.00
62708;BME280;48769;51.624;5.886;2024-03-23T04:06:34;100736.44;;;7.27;100.00
62708;BME280;48769;51.624;5.886;2024-03-23T04:09:00;100733.78;;;7.29;100.00
62708;BME280;48769;51.624;5.886;2024-03-23T04:11:25;100731.16;;;7.29;100.00
62708;BME280;48769;51.624;5.886;2024-03-23T04:13:54;100733.78;;;7.29;100.00
62708;BME280;48769;51.624;5.886;2024-03-23T04:16:35;100733.09;;;7.23;100.00
62708;BME280;48769;51.624;5.886;2024-03-23T04:19:01;100740.97;;;7.23;100.00
62708;BME280;48769;51.624;5.886;2024-03-23T04:21:26;100742.81;;;7.21;100.00
62708;BME280;48769;51.624;5.886;2024-03-23T04:23:52;100741.09;;;7.20;100.00
62708;BME280;48769;51.624;5.886;2024-03-23T04:26:17;100748.19;;;7.18;100.00
62708;BME280;48769;51.624;5.886;2024-03-23T04:28:43;100744.88;;;7.13;100.00
62708;BME280;48769;51.624;5.886;2024-03-23T04:31:09;100740.56;;;7.12;100.00
62708;BME280;48769;51.624;5.886;2024-03-23T04:33:34;100738.69;;;7.14;100.00
62708;BME280;48769;51.624;5.886;2024-03-23T04:36:00;100736.28;;;7.10;100.00
62708;BME280;48769;51.624;5.886;2024-03-23T04:38:25;100739.97;;;7.04;100.00
62708;BME280;48769;51.624;5.886;2024-03-23T04:40:57;100746.31;;;6.98;100.00
62708;BME280;48769;51.624;5.886;2024-03-23T04:43:22;100742.28;;;6.90;100.00
62708;BME280;48769;51.624;5.886;2024-03-23T04:45:48;100745.13;;;6.84;100.00
62708;BME280;48769;51.624;5.886;2024-03-23T04:48:13;100741.88;;;6.77;100.00
62708;BME280;48769;51.624;5.886;2024-03-23T04:50:38;100739.50;;;6.71;100.00
62708;BME280;48769;51.624;5.886;2024-03-23T04:53:04;100748.44;;;6.65;100.00
62708;BME280;48769;51.624;5.886;2024-03-23T04:55:29;100743.41;;;6.59;100.00
62708;BME280;48769;51.624;5.886;2024-03-23T04:57:56;100745.38;;;6.54;100.00
62708;BME280;48769;51.624;5.886;2024-03-23T05:00:21;100739.41;;;6.49;100.00
62708;BME280;48769;51.624;5.886;2024-03-23T05:02:46;100736.06;;;6.45;100.00
62708;BME280;48769;51.624;5.886;2024-03-23T05:05:12;100740.56;;;6.42;100.00
62708;BME280;48769;51.624;5.886;2024-03-23T05:07:37;100737.13;;;6.40;100.00
62708;BME280;48769;51.624;5.886;2024-03-23T05:10:03;100732.84;;;6.37;100.00
62708;BME280;48769;51.624;5.886;2024-03-23T05:12:28;100733.72;;;6.38;100.00
62708;BME280;48769;51.624;5.886;2024-03-23T05:14:54;100736.34;;;6.38;100.00
62708;BME280;48769;51.624;5.886;2024-03-23T05:17:19;100739.00;;;6.36;100.00
62708;BME280;48769;51.624;5.886;2024-03-23T05:19:44;100741.59;;;6.38;100.00
62708;BME280;48769;51.624;5.886;2024-03-23T05:22:09;100738.22;;;6.34;100.00
62708;BME280;48769;51.624;5.886;2024-03-23T05:24:35;100739.22;;;6.30;100.00
62708;BME280;48769;51.624;5.886;2024-03-23T05:27:00;100735.84;;;6.26;100.00
62708;BME280;48769;51.624;5.886;2024-03-23T05:29:26;100748.38;;;6.18;100.00
62708;BME280;48769;51.624;5.886;2024-03-23T05:31:51;100738.03;;;6.14;100.00
62708;BME280;48769;51.624;5.886;2024-03-23T05:34:17;100730.28;;;6.11;100.00
62708;BME280;48769;51.624;5.886;2024-03-23T05:36:43;100739.03;;;6.11;100.00
62708;BME280;48769;51.624;5.886;2024-03-23T05:39:08;100743.56;;;6.06;100.00
62708;BME280;48769;51.624;5.886;2024-03-23T05:41:36;100736.66;;;6.03;100.00
62708;BME280;48769;51.624;5.886;2024-03-23T05:44:02;100742.81;;;6.02;100.00
62708;BME280;48769;51.624;5.886;2024-03-23T05:46:27;100736.75;;;6.00;100.00
62708;BME280;48769;51.624;5.886;2024-03-23T05:48:53;100731.56;;;5.99;100.00
62708;BME280;48769;51.624;5.886;2024-03-23T05:51:19;100741.16;;;6.00;100.00
62708;BME280;48769;51.624;5.886;2024-03-23T05:53:44;100730.75;;;5.97;100.00
62708;BME280;48769;51.624;5.886;2024-03-23T05:56:10;100732.59;;;5.95;100.00
62708;BME280;48769;51.624;5.886;2024-03-23T05:58:35;100735.09;;;5.98;100.00
62708;BME280;48769;51.624;5.886;2024-03-23T06:01:01;100730.72;;;5.98;100.00
62708;BME280;48769;51.624;5.886;2024-03-23T06:03:30;100735.97;;;5.98;100.00
62708;BME280;48769;51.624;5.886;2024-03-23T06:05:56;100723.72;;;5.99;100.00
62708;BME280;48769;51.624;5.886;2024-03-23T06:08:22;100742.06;;;5.99;100.00
62708;BME280;48769;51.624;5.886;2024-03-23T06:10:49;100747.22;;;6.02;100.00
62708;BME280;48769;51.624;5.886;2024-03-23T06:13:15;100747.00;;;6.08;100.00
62708;BME280;48769;51.624;5.886;2024-03-23T06:15:40;100740.75;;;6.11;100.00
62708;BME280;48769;51.624;5.886;2024-03-23T06:18:06;100746.91;;;6.11;100.00
62708;BME280;48769;51.624;5.886;2024-03-23T06:20:33;100743.25;;;6.15;100.00
62708;BME280;48769;51.624;5.886;2024-03-23T06:22:58;100747.38;;;6.22;100.00
62708;BME280;48769;51.624;5.886;2024-03-23T06:25:24;100747.25;;;6.25;100.00
62708;BME280;48769;51.624;5.886;2024-03-23T06:27:49;100740.97;;;6.29;100.00
62708;BME280;48769;51.624;5.886;2024-03-23T06:30:14;100742.47;;;6.37;100.00
62708;BME280;48769;51.624;5.886;2024-03-23T06:32:40;100744.09;;;6.41;100.00
62708;BME280;48769;51.624;5.886;2024-03-23T06:35:05;100748.78;;;6.56;100.00
62708;BME280;48769;51.624;5.886;2024-03-23T06:37:34;100750.09;;;6.68;100.00
62708;BME280;48769;51.624;5.886;2024-03-23T06:39:59;100754.78;;;6.83;100.00
62708;BME280;48769;51.624;5.886;2024-03-23T06:42:24;100747.44;;;6.93;100.00
62708;BME280;48769;51.624;5.886;2024-03-23T06:44:50;100751.63;;;6.97;100.00
62708;BME280;48769;51.624;5.886;2024-03-23T06:47:15;100753.81;;;7.09;100.00
62708;BME280;48769;51.624;5.886;2024-03-23T06:49:40;100748.97;;;7.20;100.00
62708;BME280;48769;51.624;5.886;2024-03-23T06:52:06;100756.88;;;7.42;100.00
62708;BME280;48769;51.624;5.886;2024-03-23T06:54:31;100755.78;;;7.48;100.00
62708;BME280;48769;51.624;5.886;2024-03-23T06:56:56;100747.66;;;7.54;100.00
62708;BME280;48769;51.624;5.886;2024-03-23T06:59:21;100753.63;;;7.58;100.00
62708;BME280;48769;51.624;5.886;2024-03-23T07:01:47;100760.03;;;7.72;100.00
62708;BME280;48769;51.624;5.886;2024-03-23T07:04:12;100754.03;;;7.91;100.00
62708;BME280;48769;51.624;5.886;2024-03-23T07:06:44;100754.09;;;8.10;100.00
62708;BME280;48769;51.624;5.886;2024-03-23T07:09:10;100755.00;;;8.09;100.00
62708;BME280;48769;51.624;5.886;2024-03-23T07:11:35;100758.56;;;8.08;100.00
62708;BME280;48769;51.624;5.886;2024-03-23T07:14:00;100761.91;;;8.11;100.00
62708;BME280;48769;51.624;5.886;2024-03-23T07:16:30;100752.44;;;8.07;100.00
62708;BME280;48769;51.624;5.886;2024-03-23T07:18:55;100749.69;;;8.10;100.00
62708;BME280;48769;51.624;5.886;2024-03-23T07:21:21;100754.94;;;8.10;100.00
62708;BME280;48769;51.624;5.886;2024-03-23T07:23:46;100746.63;;;7.99;100.00
62708;BME280;48769;51.624;5.886;2024-03-23T07:26:11;100754.47;;;8.01;100.00
62708;BME280;48769;51.624;5.886;2024-03-23T07:28:37;100749.69;;;8.51;100.00
62708;BME280;48769;51.624;5.886;2024-03-23T07:31:04;100752.84;;;9.71;100.00
62708;BME280;48769;51.624;5.886;2024-03-23T07:33:29;100749.53;;;10.37;100.00
62708;BME280;48769;51.624;5.886;2024-03-23T07:35:54;100741.84;;;11.15;100.00
62708;BME280;48769;51.624;5.886;2024-03-23T07:38:20;100743.69;;;10.13;100.00
62708;BME280;48769;51.624;5.886;2024-03-23T07:40:45;100756.63;;;10.70;100.00
62708;BME280;48769;51.624;5.886;2024-03-23T07:43:10;100750.44;;;11.03;100.00
62708;BME280;48769;51.624;5.886;2024-03-23T07:45:36;100751.38;;;11.49;100.00
62708;BME280;48769;51.624;5.886;2024-03-23T07:48:03;100748.06;;;11.76;100.00
62708;BME280;48769;51.624;5.886;2024-03-23T07:50:29;100746.81;;;12.13;100.00
62708;BME280;48769;51.624;5.886;2024-03-23T07:52:54;100731.16;;;11.78;100.00
62708;BME280;48769;51.624;5.886;2024-03-23T07:55:19;100736.72;;;10.96;100.00
62708;BME280;48769;51.624;5.886;2024-03-23T07:57:44;100733.03;;;10.49;100.00
62708;BME280;48769;51.624;5.886;2024-03-23T08:00:10;100741.59;;;10.20;100.00
62708;BME280;48769;51.624;5.886;2024-03-23T08:02:36;100742.19;;;11.09;100.00
62708;BME280;48769;51.624;5.886;2024-03-23T08:05:01;100733.91;;;13.21;100.00
62708;BME280;48769;51.624;5.886;2024-03-23T08:07:26;100730.47;;;14.53;100.00
62708;BME280;48769;51.624;5.886;2024-03-23T08:09:52;100733.13;;;15.87;100.00
62708;BME280;48769;51.624;5.886;2024-03-23T08:12:17;100711.56;;;16.59;100.00
62708;BME280;48769;51.624;5.886;2024-03-23T08:14:42;100715.63;;;17.31;100.00
62708;BME280;48769;51.624;5.886;2024-03-23T08:17:09;100707.22;;;17.03;94.22
62708;BME280;48769;51.624;5.886;2024-03-23T08:19:34;100720.53;;;14.55;100.00
62708;BME280;48769;51.624;5.886;2024-03-23T08:21:59;100726.03;;;13.61;100.00
62708;BME280;48769;51.624;5.886;2024-03-23T08:24:25;100730.53;;;13.05;100.00
62708;BME280;48769;51.624;5.886;2024-03-23T08:26:50;100730.75;;;12.73;100.00
62708;BME280;48769;51.624;5.886;2024-03-23T08:29:15;100740.03;;;12.66;100.00
62708;BME280;48769;51.624;5.886;2024-03-23T08:31:41;100725.47;;;12.73;100.00
62708;BME280;48769;51.624;5.886;2024-03-23T08:34:06;100734.53;;;12.26;100.00
62708;BME280;48769;51.624;5.886;2024-03-23T08:36:31;100740.34;;;12.03;100.00
62708;BME280;48769;51.624;5.886;2024-03-23T08:38:57;100734.41;;;11.99;100.00
62708;BME280;48769;51.624;5.886;2024-03-23T08:41:22;100732.53;;;11.85;100.00
62708;BME280;48769;51.624;5.886;2024-03-23T08:43:48;100734.47;;;11.52;100.00
62708;BME280;48769;51.624;5.886;2024-03-23T08:49:17;100736.19;;;11.21;100.00
62708;BME280;48769;51.624;5.886;2024-03-23T08:51:43;100736.44;;;11.00;100.00
62708;BME280;48769;51.624;5.886;2024-03-23T08:54:08;100742.41;;;10.72;100.00
62708;BME280;48769;51.624;5.886;2024-03-23T08:56:34;100745.75;;;11.39;100.00
62708;BME280;48769;51.624;5.886;2024-03-23T08:58:59;100735.78;;;11.90;100.00
62708;BME280;48769;51.624;5.886;2024-03-23T09:01:24;100753.56;;;11.57;100.00
62708;BME280;48769;51.624;5.886;2024-03-23T09:03:49;100739.00;;;11.34;100.00
62708;BME280;48769;51.624;5.886;2024-03-23T09:06:15;100739.25;;;11.29;100.00
62708;BME280;48769;51.624;5.886;2024-03-23T09:08:40;100729.03;;;11.07;100.00
62708;BME280;48769;51.624;5.886;2024-03-23T09:11:08;100722.84;;;10.75;100.00
62708;BME280;48769;51.624;5.886;2024-03-23T09:13:34;100720.66;;;10.34;100.00
62708;BME280;48769;51.624;5.886;2024-03-23T09:16:00;100732.31;;;9.95;100.00
62708;BME280;48769;51.624;5.886;2024-03-23T09:18:25;100729.63;;;9.78;100.00
62708;BME280;48769;51.624;5.886;2024-03-23T09:20:50;100736.34;;;9.85;100.00
62708;BME280;48769;51.624;5.886;2024-03-23T09:23:16;100743.63;;;10.15;100.00
62708;BME280;48769;51.624;5.886;2024-03-23T09:25:41;100737.72;;;10.10;100.00
62708;BME280;48769;51.624;5.886;2024-03-23T09:28:07;100735.56;;;9.83;100.00
62708;BME280;48769;51.624;5.886;2024-03-23T09:30:35;100734.16;;;9.93;100.00
62708;BME280;48769;51.624;5.886;2024-03-23T09:33:07;100733.22;;;9.94;100.00
62708;BME280;48769;51.624;5.886;2024-03-23T09:35:32;100723.59;;;9.93;100.00
62708;BME280;48769;51.624;5.886;2024-03-23T09:37:57;100720.19;;;9.91;100.00
62708;BME280;48769;51.624;5.886;2024-03-23T09:40:23;100727.94;;;9.77;100.00
62708;BME280;48769;51.624;5.886;2024-03-23T09:42:51;100748.38;;;9.54;100.00
62708;BME280;48769;51.624;5.886;2024-03-23T09:45:20;100753.16;;;9.10;100.00
62708;BME280;48769;51.624;5.886;2024-03-23T09:47:46;100749.00;;;8.66;100.00
62708;BME280;48769;51.624;5.886;2024-03-23T09:50:13;100749.50;;;8.35;100.00
62708;BME280;48769;51.624;5.886;2024-03-23T09:52:39;100746.41;;;8.26;100.00
62708;BME280;48769;51.624;5.886;2024-03-23T09:55:04;100736.78;;;8.25;100.00
62708;BME280;48769;51.624;5.886;2024-03-23T09:57:30;100737.94;;;8.19;100.00
62708;BME280;48769;51.624;5.886;2024-03-23T09:59:55;100741.47;;;8.18;100.00
62708;BME280;48769;51.624;5.886;2024-03-23T10:02:22;100738.97;;;8.35;100.00
62708;BME280;48769;51.624;5.886;2024-03-23T10:04:48;100728.94;;;8.83;100.00
62708;BME280;48769;51.624;5.886;2024-03-23T10:07:15;100737.53;;;9.24;100.00
62708;BME280;48769;51.624;5.886;2024-03-23T10:09:42;100728.41;;;9.68;100.00
62708;BME280;48769;51.624;5.886;2024-03-23T10:12:12;100728.88;;;9.93;100.00
62708;BME280;48769;51.624;5.886;2024-03-23T10:14:42;100726.94;;;10.14;100.00
62708;BME280;48769;51.624;5.886;2024-03-23T10:17:17;100728.72;;;10.31;100.00
62708;BME280;48769;51.624;5.886;2024-03-23T10:19:47;100724.03;;;10.53;100.00
62708;BME280;48769;51.624;5.886;2024-03-23T10:22:17;100714.03;;;10.76;100.00
62708;BME280;48769;51.624;5.886;2024-03-23T10:24:42;100722.81;;;11.08;100.00
62708;BME280;48769;51.624;5.886;2024-03-23T10:27:08;100710.34;;;11.10;100.00
62708;BME280;48769;51.624;5.886;2024-03-23T10:29:33;100708.03;;;11.04;100.00
62708;BME280;48769;51.624;5.886;2024-03-23T10:32:12;100709.41;;;11.27;100.00
62708;BME280;48769;51.624;5.886;2024-03-23T10:34:38;100697.66;;;11.63;100.00
62708;BME280;48769;51.624;5.886;2024-03-23T10:37:04;100693.56;;;12.03;100.00
62708;BME280;48769;51.624;5.886;2024-03-23T10:39:32;100704.31;;;11.70;100.00
62708;BME280;48769;51.624;5.886;2024-03-23T10:42:00;100712.13;;;11.41;100.00
62708;BME280;48769;51.624;5.886;2024-03-23T10:44:28;100696.22;;;10.95;100.00
62708;BME280;48769;51.624;5.886;2024-03-23T10:46:54;100694.91;;;10.71;100.00
62708;BME280;48769;51.624;5.886;2024-03-23T10:49:25;100691.84;;;10.63;100.00
62708;BME280;48769;51.624;5.886;2024-03-23T10:51:52;100706.88;;;10.45;100.00
62708;BME280;48769;51.624;5.886;2024-03-23T10:54:18;100706.09;;;10.43;100.00
62708;BME280;48769;51.624;5.886;2024-03-23T10:56:44;100699.44;;;11.32;100.00
62708;BME280;48769;51.624;5.886;2024-03-23T10:59:11;100692.66;;;11.42;100.00
62708;BME280;48769;51.624;5.886;2024-03-23T11:01:54;100692.31;;;11.79;100.00
62708;BME280;48769;51.624;5.886;2024-03-23T11:04:35;100692.84;;;11.85;100.00
62708;BME280;48769;51.624;5.886;2024-03-23T11:09:48;100697.97;;;11.11;100.00
62708;BME280;48769;51.624;5.886;2024-03-23T11:14:51;100706.47;;;11.93;100.00
62708;BME280;48769;51.624;5.886;2024-03-23T11:17:21;100695.13;;;11.91;100.00
62708;BME280;48769;51.624;5.886;2024-03-23T11:20:03;100690.66;;;11.16;100.00
62708;BME280;48769;51.624;5.886;2024-03-23T11:22:40;100700.88;;;10.74;100.00
62708;BME280;48769;51.624;5.886;2024-03-23T11:27:41;100686.31;;;11.15;100.00
62708;BME280;48769;51.624;5.886;2024-03-23T11:30:14;100680.38;;;12.02;100.00
62708;BME280;48769;51.624;5.886;2024-03-23T11:32:40;100684.38;;;12.80;100.00
62708;BME280;48769;51.624;5.886;2024-03-23T11:35:06;100667.06;;;13.16;98.86
62708;BME280;48769;51.624;5.886;2024-03-23T11:37:31;100649.53;;;13.41;88.16
62708;BME280;48769;51.624;5.886;2024-03-23T11:39:57;100675.34;;;12.42;94.99
62708;BME280;48769;51.624;5.886;2024-03-23T11:42:22;100708.66;;;11.71;100.00
62708;BME280;48769;51.624;5.886;2024-03-23T11:44:47;100721.03;;;11.09;100.00
62708;BME280;48769;51.624;5.886;2024-03-23T11:47:13;100712.28;;;10.75;100.00
62708;BME280;48769;51.624;5.886;2024-03-23T11:49:38;100717.84;;;10.70;100.00
62708;BME280;48769;51.624;5.886;2024-03-23T11:52:06;100716.09;;;10.53;100.00
62708;BME280;48769;51.624;5.886;2024-03-23T11:54:32;100705.03;;;10.29;100.00
62708;BME280;48769;51.624;5.886;2024-03-23T11:57:07;100693.69;;;10.10;100.00
62708;BME280;48769;51.624;5.886;2024-03-23T11:59:37;100703.56;;;10.06;100.00
62708;BME280;48769;51.624;5.886;2024-03-23T12:02:13;100695.13;;;10.50;100.00
62708;BME280;48769;51.624;5.886;2024-03-23T12:04:42;100683.56;;;11.32;100.00
62708;BME280;48769;51.624;5.886;2024-03-23T12:07:18;100668.47;;;12.80;99.51
62708;BME280;48769;51.624;5.886;2024-03-23T12:09:45;100670.56;;;13.17;94.49
62708;BME280;48769;51.624;5.886;2024-03-23T12:12:17;100672.34;;;13.30;93.84
62708;BME280;48769;51.624;5.886;2024-03-23T12:15:00;100675.41;;;13.64;93.08
62708;BME280;48769;51.624;5.886;2024-03-23T12:17:26;100667.91;;;14.47;88.81
62708;BME280;48769;51.624;5.886;2024-03-23T12:19:51;100660.69;;;13.98;88.16
62708;BME280;48769;51.624;5.886;2024-03-23T12:22:20;100666.50;;;13.91;89.87
62708;BME280;48769;51.624;5.886;2024-03-23T12:24:46;100645.88;;;13.29;85.57
62708;BME280;48769;51.624;5.886;2024-03-23T12:27:11;100644.56;;;12.53;89.19
62708;BME280;48769;51.624;5.886;2024-03-23T12:29:36;100648.59;;;11.87;95.25
62708;BME280;48769;51.624;5.886;2024-03-23T12:32:04;100661.44;;;11.33;99.31
62708;BME280;48769;51.624;5.886;2024-03-23T12:34:30;100659.72;;;11.18;100.00
62708;BME280;48769;51.624;5.886;2024-03-23T12:36:56;100656.97;;;11.50;100.00
62708;BME280;48769;51.624;5.886;2024-03-23T12:39:21;100654.94;;;13.26;100.00
62708;BME280;48769;51.624;5.886;2024-03-23T12:41:47;100626.59;;;13.13;98.10
62708;BME280;48769;51.624;5.886;2024-03-23T12:44:13;100628.75;;;12.37;96.53
62708;BME280;48769;51.624;5.886;2024-03-23T12:46:40;100634.06;;;11.95;99.21
62708;BME280;48769;51.624;5.886;2024-03-23T12:49:06;100631.13;;;11.55;92.31
62708;BME280;48769;51.624;5.886;2024-03-23T12:51:32;100651.00;;;11.16;90.12
62708;BME280;48769;51.624;5.886;2024-03-23T12:53:57;100641.69;;;11.25;90.49
62708;BME280;48769;51.624;5.886;2024-03-23T12:56:23;100644.84;;;12.34;88.54
62708;BME280;48769;51.624;5.886;2024-03-23T12:58:48;100642.28;;;12.61;90.48
62708;BME280;48769;51.624;5.886;2024-03-23T13:01:19;100660.16;;;12.01;91.22
62708;BME280;48769;51.624;5.886;2024-03-23T13:03:48;100673.97;;;11.45;94.17
62708;BME280;48769;51.624;5.886;2024-03-23T13:06:14;100664.91;;;10.88;100.00
62708;BME280;48769;51.624;5.886;2024-03-23T13:08:39;100682.28;;;10.60;100.00
62708;BME280;48769;51.624;5.886;2024-03-23T13:11:08;100697.91;;;10.14;100.00
62708;BME280;48769;51.624;5.886;2024-03-23T13:13:35;100690.91;;;10.31;100.00
62708;BME280;48769;51.624;5.886;2024-03-23T13:16:01;100690.16;;;10.93;100.00
62708;BME280;48769;51.624;5.886;2024-03-23T13:18:28;100681.06;;;11.45;100.00
62708;BME280;48769;51.624;5.886;2024-03-23T13:20:53;100681.53;;;12.69;100.00
62708;BME280;48769;51.624;5.886;2024-03-23T13:23:19;100680.97;;;12.78;100.00
62708;BME280;48769;51.624;5.886;2024-03-23T13:25:51;100673.78;;;12.66;100.00
62708;BME280;48769;51.624;5.886;2024-03-23T13:28:20;100681.34;;;12.15;100.00
62708;BME280;48769;51.624;5.886;2024-03-23T13:30:53;100682.91;;;11.59;100.00
62708;BME280;48769;51.624;5.886;2024-03-23T13:33:19;100684.72;;;11.73;100.00
62708;BME280;48769;51.624;5.886;2024-03-23T13:35:51;100675.41;;;11.81;100.00
62708;BME280;48769;51.624;5.886;2024-03-23T13:38:16;100669.31;;;11.35;100.00
62708;BME280;48769;51.624;5.886;2024-03-23T13:40:59;100665.59;;;10.91;96.59
62708;BME280;48769;51.624;5.886;2024-03-23T13:43:26;100678.41;;;10.99;100.00
62708;BME280;48769;51.624;5.886;2024-03-23T13:45:58;100664.03;;;11.35;95.95
62708;BME280;48769;51.624;5.886;2024-03-23T13:48:26;100654.06;;;12.84;93.87